Skip to content
You are here: Gozo Weather
Gozo Weather Station for the very latest live weather conditions from Gozo and Malta
 
 TIME   TEMPERATURE   WINDSPEED   DIRECTION   HUMIDITY   BAROMETER   RAINFALL 
12:55 19.1°C (66.4°F) 25.9 kmh (16.1 mph) NW 49% 1013.0hPa (29.91 inHg) 0.0mm (0.00 in.)
11:55 21.2°C (70.2 °F) 20.4 kmh (12.7 mph) SW 49% 1012.0hPa (29.88 inHg) 0.0mm (0.00 in.)
10:55 18.6°C (65.5 °F) 18.5 kmh (11.5 mph) WSW 55% 1012.0hPa (29.88 inHg) 0.0mm (0.00 in.)
9:55 17.7°C (63.9 °F) 13.0 kmh (8.1 mph) SW 61% 1012.0hPa (29.88 inHg) 0.0mm (0.00 in.)
8:55 17.4°C (63.3 °F) 7.4 kmh (4.6 mph) SW 59% 1011.0hPa (29.85 inHg) 0.0mm (0.00 in.)
7:55 18.3°C (64.9 °F) 9.3 kmh (5.8 mph) SSE 54% 1011.0hPa (29.85 inHg) 0.0mm (0.00 in.)
6:49 17.4°C (63.3 °F) 0.0 kmh (0.0 mph) WNW 51% 1010.0hPa (29.83 inHg) 0.0mm (0.00 in.)
5:49 17.4°C (63.3 °F) 14.8 kmh (9.2 mph) SW 51% 1009.0hPa (29.80 inHg) 0.0mm (0.00 in.)
4:49 17.3°C (63.1 °F) 0.0 kmh (0.0 mph) WSW 55% 1009.0hPa (29.80 inHg) 0.0mm (0.00 in.)
3:49 17.3°C (63.1 °F) 0.0 kmh (0.0 mph) NW 55% 1011.0hPa (29.85 inHg) 0.0mm (0.00 in.)
2:49 17.5°C (63.5 °F) 7.4 kmh (4.6 mph) WNW 55% 1012.0hPa (29.88 inHg) 0.0mm (0.00 in.)
1:49 17.6°C (63.7 °F) 0.0 kmh (0.0 mph) S 56% 1012.0hPa (29.88 inHg) 0.0mm (0.00 in.)
12:49 17.7°C (63.9 °F) 5.6 kmh (3.5 mph) S 57% 1012.0hPa (29.88 inHg) 0.0mm (0.00 in.)
11:49 17.8°C (64.0 °F) 7.4 kmh (4.6 mph) SSW 55% 1012.0hPa (29.88 inHg) 0.0mm (0.00 in.)
10:41 18.0°C (64.4 °F) 18.5 kmh (11.5 mph) NNE 52% 1013.0hPa (29.91 inHg) 0.0mm (0.00 in.)
9:41 18.3°C (64.9 °F) 5.6 kmh (3.5 mph) WNW 50% 1012.0hPa (29.88 inHg) 0.0mm (0.00 in.)
8:41 18.5°C (65.3 °F) 14.8 kmh (9.2 mph) N 50% 1012.0hPa (29.88 inHg) 0.0mm (0.00 in.)
7:41 18.7°C (65.7 °F) 0.0 kmh (0.0 mph) WNW 51% 1011.0hPa (29.85 inHg) 0.0mm (0.00 in.)
6:41 19.9°C (67.8 °F) 0.0 kmh (0.0 mph) WSW 50% 1013.0hPa (29.91 inHg) 0.0mm (0.00 in.)
5:41 20.3°C (68.5 °F) 11.1 kmh (6.9 mph) NNE 47% 1012.0hPa (29.88 inHg) 0.0mm (0.00 in.)
4:41 20.7°C (69.3 °F) 14.8 kmh (9.2 mph) S 46% 1013.0hPa (29.91 inHg) 0.0mm (0.00 in.)
3:41 21.0°C (69.8 °F) 13.0 kmh (8.1 mph) NNE 43% 1012.0hPa (29.88 inHg) 0.0mm (0.00 in.)
2:41 20.8°C (69.4 °F) 11.1 kmh (6.9 mph) WNW 43% 1013.0hPa (29.91 inHg) 0.0mm (0.00 in.)
1:41 20.7°C (69.3 °F) 13.0 kmh (8.1 mph) SSW 48% 1014.0hPa (29.94 inHg) 0.0mm (0.00 in.)

You need the latest version of Flash Player to view some of our content.


Why not download and install the latest version now?
It will only take you a moment and will ensure that you can view all the latest flash designed websites.

Translate this page

Animated Satellite

Click per aprire http://www.gozo.ws/Animation.php
copyright 2015 EUMETSAT

European Lightning Activity


Please click image for full size

Sponsored Links